sensor_id;sensor_type;location;lat;lon;timestamp;pressure;altitude;pressure_sealevel;temperature;humidity
30021;BME280;16861;52.294;7.760;2023-01-31T00:01:38;100390.16;;;5.92;75.77
30021;BME280;16861;52.294;7.760;2023-01-31T00:04:07;100388.41;;;5.91;75.59
30021;BME280;16861;52.294;7.760;2023-01-31T00:06:37;100398.88;;;5.91;75.71
30021;BME280;16861;52.294;7.760;2023-01-31T00:09:06;100401.56;;;5.90;75.60
30021;BME280;16861;52.294;7.760;2023-01-31T00:11:33;100409.41;;;5.90;75.86
30021;BME280;16861;52.294;7.760;2023-01-31T00:14:04;100399.81;;;5.89;75.76
30021;BME280;16861;52.294;7.760;2023-01-31T00:16:31;100408.50;;;5.91;76.27
30021;BME280;16861;52.294;7.760;2023-01-31T00:18:58;100405.88;;;5.91;76.03
30021;BME280;16861;52.294;7.760;2023-01-31T00:21:28;100404.97;;;5.92;75.95
30021;BME280;16861;52.294;7.760;2023-01-31T00:23:57;100404.97;;;5.92;76.14
30021;BME280;16861;52.294;7.760;2023-01-31T00:26:28;100401.44;;;5.93;76.14
30021;BME280;16861;52.294;7.760;2023-01-31T00:28:56;100397.97;;;5.94;75.74
30021;BME280;16861;52.294;7.760;2023-01-31T00:31:24;100397.09;;;5.93;75.61
30021;BME280;16861;52.294;7.760;2023-01-31T00:33:53;100388.38;;;5.93;75.33
30021;BME280;16861;52.294;7.760;2023-01-31T00:36:23;100385.81;;;5.91;75.08
30021;BME280;16861;52.294;7.760;2023-01-31T00:38:53;100385.03;;;5.87;74.75
30021;BME280;16861;52.294;7.760;2023-01-31T00:41:20;100385.09;;;5.86;75.08
30021;BME280;16861;52.294;7.760;2023-01-31T00:43:48;100389.53;;;5.82;74.76
30021;BME280;16861;52.294;7.760;2023-01-31T00:46:15;100386.16;;;5.79;74.88
30021;BME280;16861;52.294;7.760;2023-01-31T00:48:42;100388.91;;;5.74;74.94
30021;BME280;16861;52.294;7.760;2023-01-31T00:51:09;100388.97;;;5.71;74.96
30021;BME280;16861;52.294;7.760;2023-01-31T00:53:35;100386.50;;;5.66;74.58
30021;BME280;16861;52.294;7.760;2023-01-31T00:56:08;100377.03;;;5.62;74.54
30021;BME280;16861;52.294;7.760;2023-01-31T00:58:34;100384.06;;;5.58;74.75
30021;BME280;16861;52.294;7.760;2023-01-31T01:03:39;100385.16;;;5.50;74.91
30021;BME280;16861;52.294;7.760;2023-01-31T01:06:07;100384.44;;;5.44;74.85
30021;BME280;16861;52.294;7.760;2023-01-31T01:08:35;100380.19;;;5.40;74.68
30021;BME280;16861;52.294;7.760;2023-01-31T01:11:17;100386.41;;;5.34;73.96
30021;BME280;16861;52.294;7.760;2023-01-31T01:13:44;100396.06;;;5.32;75.10
30021;BME280;16861;52.294;7.760;2023-01-31T01:16:27;100393.53;;;5.28;74.67
30021;BME280;16861;52.294;7.760;2023-01-31T01:18:54;100392.78;;;5.24;75.03
30021;BME280;16861;52.294;7.760;2023-01-31T01:21:26;100401.50;;;5.21;74.81
30021;BME280;16861;52.294;7.760;2023-01-31T01:23:56;100405.97;;;5.18;75.17
30021;BME280;16861;52.294;7.760;2023-01-31T01:26:26;100399.94;;;5.16;75.02
30021;BME280;16861;52.294;7.760;2023-01-31T01:28:54;100393.03;;;5.13;75.32
30021;BME280;16861;52.294;7.760;2023-01-31T01:31:22;100401.78;;;5.11;75.39
30021;BME280;16861;52.294;7.760;2023-01-31T01:34:07;100398.41;;;5.05;74.65
30021;BME280;16861;52.294;7.760;2023-01-31T01:36:37;100394.94;;;5.06;75.33
30021;BME280;16861;52.294;7.760;2023-01-31T01:39:05;100397.59;;;5.03;75.04
30021;BME280;16861;52.294;7.760;2023-01-31T01:41:34;100390.72;;;5.01;74.91
30021;BME280;16861;52.294;7.760;2023-01-31T01:44:03;100392.53;;;4.97;75.46
30021;BME280;16861;52.294;7.760;2023-01-31T01:46:36;100394.34;;;4.93;74.92
30021;BME280;16861;52.294;7.760;2023-01-31T01:49:27;100403.13;;;4.89;74.57
30021;BME280;16861;52.294;7.760;2023-01-31T01:51:59;100413.56;;;4.89;75.01
30021;BME280;16861;52.294;7.760;2023-01-31T01:54:34;100408.41;;;4.86;75.11
30021;BME280;16861;52.294;7.760;2023-01-31T01:57:04;100409.34;;;4.83;75.38
30021;BME280;16861;52.294;7.760;2023-01-31T01:59:46;100410.28;;;4.81;74.78
30021;BME280;16861;52.294;7.760;2023-01-31T02:02:15;100412.84;;;4.82;75.52
30021;BME280;16861;52.294;7.760;2023-01-31T02:04:45;100416.41;;;4.80;75.25
30021;BME280;16861;52.294;7.760;2023-01-31T02:07:14;100433.78;;;4.79;75.70
30021;BME280;16861;52.294;7.760;2023-01-31T02:09:45;100415.63;;;4.76;75.49
30021;BME280;16861;52.294;7.760;2023-01-31T02:12:14;100428.66;;;4.76;75.63
30021;BME280;16861;52.294;7.760;2023-01-31T02:14:41;100425.22;;;4.74;75.40
30021;BME280;16861;52.294;7.760;2023-01-31T02:17:13;100432.22;;;4.72;75.23
30021;BME280;16861;52.294;7.760;2023-01-31T02:25:47;100446.13;;;4.71;74.92
30021;BME280;16861;52.294;7.760;2023-01-31T02:31:19;100442.63;;;4.74;75.60
30021;BME280;16861;52.294;7.760;2023-01-31T02:34:02;100435.69;;;4.71;74.76
30021;BME280;16861;52.294;7.760;2023-01-31T02:36:40;100434.84;;;4.72;75.34
30021;BME280;16861;52.294;7.760;2023-01-31T02:41:52;100434.03;;;4.67;74.87
30021;BME280;16861;52.294;7.760;2023-01-31T02:44:45;100432.38;;;4.64;74.29
30021;BME280;16861;52.294;7.760;2023-01-31T02:50:58;100423.75;;;4.61;74.33
30021;BME280;16861;52.294;7.760;2023-01-31T02:53:31;100423.72;;;4.64;75.08
30021;BME280;16861;52.294;7.760;2023-01-31T02:56:03;100418.53;;;4.62;75.57
30021;BME280;16861;52.294;7.760;2023-01-31T02:58:44;100410.69;;;4.62;73.85
30021;BME280;16861;52.294;7.760;2023-01-31T03:01:16;100401.06;;;4.64;75.48
30021;BME280;16861;52.294;7.760;2023-01-31T03:03:45;100405.44;;;4.64;75.64
30021;BME280;16861;52.294;7.760;2023-01-31T03:09:16;100383.75;;;4.62;75.05
30021;BME280;16861;52.294;7.760;2023-01-31T03:12:15;100376.81;;;4.61;74.60
30021;BME280;16861;52.294;7.760;2023-01-31T03:20:27;100369.88;;;4.61;74.61
30021;BME280;16861;52.294;7.760;2023-01-31T03:23:00;100382.81;;;4.64;73.86
30021;BME280;16861;52.294;7.760;2023-01-31T03:25:30;100384.47;;;4.68;75.75
30021;BME280;16861;52.294;7.760;2023-01-31T03:28:01;100372.31;;;4.69;75.88
30021;BME280;16861;52.294;7.760;2023-01-31T03:30:42;100366.22;;;4.68;75.45
30021;BME280;16861;52.294;7.760;2023-01-31T03:33:18;100361.84;;;4.71;75.43
30021;BME280;16861;52.294;7.760;2023-01-31T03:35:53;100355.69;;;4.73;75.63
30021;BME280;16861;52.294;7.760;2023-01-31T03:38:33;100347.00;;;4.73;75.28
30021;BME280;16861;52.294;7.760;2023-01-31T03:41:28;100352.16;;;4.76;74.93
30021;BME280;16861;52.294;7.760;2023-01-31T03:44:06;100349.50;;;4.77;75.44
30021;BME280;16861;52.294;7.760;2023-01-31T03:46:38;100352.06;;;4.80;75.68
30021;BME280;16861;52.294;7.760;2023-01-31T03:49:09;100338.94;;;4.82;75.79
30021;BME280;16861;52.294;7.760;2023-01-31T03:51:41;100348.53;;;4.83;75.62
30021;BME280;16861;52.294;7.760;2023-01-31T03:54:17;100341.50;;;4.85;75.26
30021;BME280;16861;52.294;7.760;2023-01-31T03:57:03;100342.38;;;4.86;74.96
30021;BME280;16861;52.294;7.760;2023-01-31T03:59:36;100340.50;;;4.91;75.94
30021;BME280;16861;52.294;7.760;2023-01-31T04:02:07;100341.31;;;4.93;75.92
30021;BME280;16861;52.294;7.760;2023-01-31T04:04:41;100339.56;;;4.93;75.52
30021;BME280;16861;52.294;7.760;2023-01-31T04:07:11;100336.00;;;4.98;76.14
30021;BME280;16861;52.294;7.760;2023-01-31T04:09:37;100342.88;;;5.00;76.14
30021;BME280;16861;52.294;7.760;2023-01-31T04:12:05;100343.75;;;5.01;76.12
30021;BME280;16861;52.294;7.760;2023-01-31T04:14:31;100341.94;;;5.03;76.16
30021;BME280;16861;52.294;7.760;2023-01-31T04:16:58;100339.31;;;5.04;76.39
30021;BME280;16861;52.294;7.760;2023-01-31T04:19:25;100337.53;;;5.06;76.20
30021;BME280;16861;52.294;7.760;2023-01-31T04:21:51;100330.53;;;5.07;76.06
30021;BME280;16861;52.294;7.760;2023-01-31T04:24:18;100326.16;;;5.09;76.06
30021;BME280;16861;52.294;7.760;2023-01-31T04:26:44;100314.81;;;5.10;76.15
30021;BME280;16861;52.294;7.760;2023-01-31T04:29:11;100314.75;;;5.13;76.13
30021;BME280;16861;52.294;7.760;2023-01-31T04:31:37;100309.47;;;5.15;76.16
30021;BME280;16861;52.294;7.760;2023-01-31T04:34:06;100307.69;;;5.17;76.10
30021;BME280;16861;52.294;7.760;2023-01-31T04:36:33;100307.63;;;5.20;75.90
30021;BME280;16861;52.294;7.760;2023-01-31T04:38:59;100310.16;;;5.21;76.00
30021;BME280;16861;52.294;7.760;2023-01-31T04:41:29;100298.81;;;5.24;76.15
30021;BME280;16861;52.294;7.760;2023-01-31T04:43:55;100304.78;;;5.28;76.09
30021;BME280;16861;52.294;7.760;2023-01-31T04:46:22;100293.44;;;5.29;76.03
30021;BME280;16861;52.294;7.760;2023-01-31T04:48:49;100291.69;;;5.31;75.96
30021;BME280;16861;52.294;7.760;2023-01-31T04:51:15;100284.66;;;5.33;76.06
30021;BME280;16861;52.294;7.760;2023-01-31T04:53:42;100274.16;;;5.34;75.64
30021;BME280;16861;52.294;7.760;2023-01-31T04:56:10;100273.28;;;5.34;75.65
30021;BME280;16861;52.294;7.760;2023-01-31T04:58:36;100275.03;;;5.35;75.58
30021;BME280;16861;52.294;7.760;2023-01-31T05:01:02;100268.06;;;5.34;75.30
30021;BME280;16861;52.294;7.760;2023-01-31T05:03:29;100265.44;;;5.35;75.95
30021;BME280;16861;52.294;7.760;2023-01-31T05:05:55;100262.78;;;5.37;75.74
30021;BME280;16861;52.294;7.760;2023-01-31T05:08:22;100259.25;;;5.38;75.92
30021;BME280;16861;52.294;7.760;2023-01-31T05:10:48;100255.72;;;5.41;75.99
30021;BME280;16861;52.294;7.760;2023-01-31T05:13:14;100254.78;;;5.43;76.05
30021;BME280;16861;52.294;7.760;2023-01-31T05:15:41;100252.94;;;5.47;76.08
30021;BME280;16861;52.294;7.760;2023-01-31T05:18:07;100242.44;;;5.50;76.15
30021;BME280;16861;52.294;7.760;2023-01-31T05:20:37;100237.09;;;5.53;75.74
30021;BME280;16861;52.294;7.760;2023-01-31T05:23:06;100250.94;;;5.57;76.15
30021;BME280;16861;52.294;7.760;2023-01-31T05:25:34;100238.72;;;5.57;75.77
30021;BME280;16861;52.294;7.760;2023-01-31T05:28:02;100243.88;;;5.60;76.17
30021;BME280;16861;52.294;7.760;2023-01-31T05:30:29;100244.66;;;5.63;76.06
30021;BME280;16861;52.294;7.760;2023-01-31T05:32:56;100241.97;;;5.66;76.16
30021;BME280;16861;52.294;7.760;2023-01-31T05:35:23;100238.44;;;5.67;76.29
30021;BME280;16861;52.294;7.760;2023-01-31T05:37:52;100243.69;;;5.67;75.91
30021;BME280;16861;52.294;7.760;2023-01-31T05:40:18;100241.84;;;5.70;76.19
30021;BME280;16861;52.294;7.760;2023-01-31T05:42:49;100240.06;;;5.71;75.51
30021;BME280;16861;52.294;7.760;2023-01-31T05:45:18;100238.22;;;5.76;76.30
30021;BME280;16861;52.294;7.760;2023-01-31T05:47:46;100229.47;;;5.77;76.58
30021;BME280;16861;52.294;7.760;2023-01-31T05:50:12;100218.88;;;5.82;76.25
30021;BME280;16861;52.294;7.760;2023-01-31T05:52:39;100224.03;;;5.83;76.18
30021;BME280;16861;52.294;7.760;2023-01-31T05:55:05;100222.25;;;5.85;76.33
30021;BME280;16861;52.294;7.760;2023-01-31T05:57:32;100213.50;;;5.86;76.03
30021;BME280;16861;52.294;7.760;2023-01-31T05:59:58;100223.06;;;5.87;76.14
30021;BME280;16861;52.294;7.760;2023-01-31T06:02:26;100223.88;;;5.90;76.00
30021;BME280;16861;52.294;7.760;2023-01-31T06:04:52;100224.72;;;5.90;76.18
30021;BME280;16861;52.294;7.760;2023-01-31T06:07:19;100229.00;;;5.93;76.37
30021;BME280;16861;52.294;7.760;2023-01-31T06:09:45;100221.16;;;5.93;76.05
30021;BME280;16861;52.294;7.760;2023-01-31T06:12:12;100228.03;;;5.95;76.26
30021;BME280;16861;52.294;7.760;2023-01-31T06:14:39;100215.06;;;5.94;76.02
30021;BME280;16861;52.294;7.760;2023-01-31T06:17:06;100218.47;;;5.96;76.15
30021;BME280;16861;52.294;7.760;2023-01-31T06:19:32;100216.66;;;5.98;76.25
30021;BME280;16861;52.294;7.760;2023-01-31T06:21:59;100219.28;;;5.98;75.97
30021;BME280;16861;52.294;7.760;2023-01-31T06:24:25;100206.22;;;5.98;75.91
30021;BME280;16861;52.294;7.760;2023-01-31T06:26:53;100220.13;;;5.98;75.92
30021;BME280;16861;52.294;7.760;2023-01-31T06:29:19;100209.56;;;6.02;76.06
30021;BME280;16861;52.294;7.760;2023-01-31T06:31:45;100213.09;;;6.00;75.88
30021;BME280;16861;52.294;7.760;2023-01-31T06:34:12;100202.69;;;5.99;75.71
30021;BME280;16861;52.294;7.760;2023-01-31T06:36:38;100213.03;;;6.02;75.79
30021;BME280;16861;52.294;7.760;2023-01-31T06:39:05;100211.31;;;6.01;75.72
30021;BME280;16861;52.294;7.760;2023-01-31T06:41:31;100206.97;;;6.02;75.67
30021;BME280;16861;52.294;7.760;2023-01-31T06:43:58;100220.94;;;6.00;75.66
30021;BME280;16861;52.294;7.760;2023-01-31T06:46:24;100197.47;;;5.99;75.82
30021;BME280;16861;52.294;7.760;2023-01-31T06:48:51;100208.72;;;6.01;75.92
30021;BME280;16861;52.294;7.760;2023-01-31T06:51:17;100200.03;;;6.00;75.91
30021;BME280;16861;52.294;7.760;2023-01-31T06:53:43;100192.19;;;6.00;75.92
30021;BME280;16861;52.294;7.760;2023-01-31T06:56:10;100205.25;;;6.00;76.35
30021;BME280;16861;52.294;7.760;2023-01-31T06:58:36;100198.22;;;6.03;76.08
30021;BME280;16861;52.294;7.760;2023-01-31T07:01:07;100204.34;;;6.03;75.74
30021;BME280;16861;52.294;7.760;2023-01-31T07:03:34;100181.63;;;6.05;75.79
30021;BME280;16861;52.294;7.760;2023-01-31T07:06:00;100175.56;;;6.05;75.90
30021;BME280;16861;52.294;7.760;2023-01-31T07:08:27;100185.94;;;6.06;75.95
30021;BME280;16861;52.294;7.760;2023-01-31T07:10:54;100182.44;;;6.07;75.93
30021;BME280;16861;52.294;7.760;2023-01-31T07:13:20;100182.41;;;6.09;75.83
30021;BME280;16861;52.294;7.760;2023-01-31T07:15:46;100171.03;;;6.10;76.09
30021;BME280;16861;52.294;7.760;2023-01-31T07:18:13;100170.13;;;6.11;76.06
30021;BME280;16861;52.294;7.760;2023-01-31T07:20:40;100165.75;;;6.11;75.94
30021;BME280;16861;52.294;7.760;2023-01-31T07:23:09;100165.63;;;6.15;76.10
30021;BME280;16861;52.294;7.760;2023-01-31T07:25:36;100167.38;;;6.16;76.15
30021;BME280;16861;52.294;7.760;2023-01-31T07:28:03;100166.47;;;6.17;75.79
30021;BME280;16861;52.294;7.760;2023-01-31T07:30:29;100162.97;;;6.16;75.82
30021;BME280;16861;52.294;7.760;2023-01-31T07:32:56;100162.88;;;6.19;75.93
30021;BME280;16861;52.294;7.760;2023-01-31T07:35:23;100168.06;;;6.21;76.18
30021;BME280;16861;52.294;7.760;2023-01-31T07:37:52;100172.38;;;6.22;75.41
30021;BME280;16861;52.294;7.760;2023-01-31T07:40:19;100152.19;;;6.27;75.95
30021;BME280;16861;52.294;7.760;2023-01-31T07:42:45;100146.03;;;6.28;76.28
30021;BME280;16861;52.294;7.760;2023-01-31T07:45:13;100136.34;;;6.32;75.97
30021;BME280;16861;52.294;7.760;2023-01-31T07:47:49;100139.69;;;6.35;76.22
30021;BME280;16861;52.294;7.760;2023-01-31T07:50:15;100138.69;;;6.39;76.22
30021;BME280;16861;52.294;7.760;2023-01-31T07:52:42;100142.97;;;6.42;76.21
30021;BME280;16861;52.294;7.760;2023-01-31T07:55:08;100137.66;;;6.45;76.09
30021;BME280;16861;52.294;7.760;2023-01-31T07:57:34;100135.78;;;6.49;75.98
30021;BME280;16861;52.294;7.760;2023-01-31T08:00:01;100129.63;;;6.50;75.85
30021;BME280;16861;52.294;7.760;2023-01-31T08:02:28;100129.53;;;6.53;75.41
30021;BME280;16861;52.294;7.760;2023-01-31T08:05:13;100123.34;;;6.56;75.71
30021;BME280;16861;52.294;7.760;2023-01-31T08:07:40;100128.53;;;6.57;75.70
30021;BME280;16861;52.294;7.760;2023-01-31T08:10:07;100104.00;;;6.60;75.42
30021;BME280;16861;52.294;7.760;2023-01-31T08:12:35;100112.69;;;6.62;75.82
30021;BME280;16861;52.294;7.760;2023-01-31T08:15:01;100104.00;;;6.60;75.04
30021;BME280;16861;52.294;7.760;2023-01-31T08:17:27;100098.72;;;6.61;75.62
30021;BME280;16861;52.294;7.760;2023-01-31T08:19:54;100103.06;;;6.62;75.33
30021;BME280;16861;52.294;7.760;2023-01-31T08:22:21;100097.81;;;6.62;75.51
30021;BME280;16861;52.294;7.760;2023-01-31T08:24:47;100088.22;;;6.63;75.69
30021;BME280;16861;52.294;7.760;2023-01-31T08:27:14;100090.78;;;6.64;75.71
30021;BME280;16861;52.294;7.760;2023-01-31T08:29:40;100102.09;;;6.65;75.44
30021;BME280;16861;52.294;7.760;2023-01-31T08:32:06;100078.53;;;6.65;75.32
30021;BME280;16861;52.294;7.760;2023-01-31T08:34:33;100069.81;;;6.66;75.38
30021;BME280;16861;52.294;7.760;2023-01-31T08:36:59;100071.47;;;6.69;75.78
30021;BME280;16861;52.294;7.760;2023-01-31T08:39:26;100060.09;;;6.70;75.58
30021;BME280;16861;52.294;7.760;2023-01-31T08:41:52;100067.81;;;6.73;75.56
30021;BME280;16861;52.294;7.760;2023-01-31T08:44:19;100056.44;;;6.74;75.45
30021;BME280;16861;52.294;7.760;2023-01-31T08:46:45;100046.75;;;6.76;75.49
30021;BME280;16861;52.294;7.760;2023-01-31T08:49:12;100049.31;;;6.77;75.53
30021;BME280;16861;52.294;7.760;2023-01-31T08:51:38;100051.94;;;6.77;75.17
30021;BME280;16861;52.294;7.760;2023-01-31T08:54:05;100058.03;;;6.78;75.42
30021;BME280;16861;52.294;7.760;2023-01-31T08:56:31;100063.38;;;6.75;74.53
30021;BME280;16861;52.294;7.760;2023-01-31T08:59:00;100059.84;;;6.76;74.71
30021;BME280;16861;52.294;7.760;2023-01-31T09:01:27;100064.19;;;6.77;74.90
30021;BME280;16861;52.294;7.760;2023-01-31T09:03:54;100075.50;;;6.77;74.83
30021;BME280;16861;52.294;7.760;2023-01-31T09:06:24;100062.34;;;6.79;74.77
30021;BME280;16861;52.294;7.760;2023-01-31T09:08:54;100050.16;;;6.80;74.85
30021;BME280;16861;52.294;7.760;2023-01-31T09:11:20;100048.31;;;6.82;75.13
30021;BME280;16861;52.294;7.760;2023-01-31T09:13:47;100043.94;;;6.82;75.03
30021;BME280;16861;52.294;7.760;2023-01-31T09:16:17;100053.53;;;6.82;74.77
30021;BME280;16861;52.294;7.760;2023-01-31T09:18:44;100036.94;;;6.83;74.93
30021;BME280;16861;52.294;7.760;2023-01-31T09:21:19;100041.44;;;6.79;73.79
30021;BME280;16861;52.294;7.760;2023-01-31T09:23:47;100049.13;;;6.84;74.95
30021;BME280;16861;52.294;7.760;2023-01-31T09:26:14;100052.56;;;6.84;74.65
30021;BME280;16861;52.294;7.760;2023-01-31T09:28:41;100042.09;;;6.84;75.10
30021;BME280;16861;52.294;7.760;2023-01-31T09:31:13;100042.97;;;6.85;74.47
30021;BME280;16861;52.294;7.760;2023-01-31T09:33:40;100035.19;;;6.83;75.04
30021;BME280;16861;52.294;7.760;2023-01-31T09:36:09;100029.88;;;6.85;74.75
30021;BME280;16861;52.294;7.760;2023-01-31T09:38:36;100030.75;;;6.85;74.70
30021;BME280;16861;52.294;7.760;2023-01-31T09:41:05;100021.16;;;6.84;74.98
30021;BME280;16861;52.294;7.760;2023-01-31T09:43:39;100023.75;;;6.86;74.60
30021;BME280;16861;52.294;7.760;2023-01-31T09:46:12;100029.88;;;6.85;74.02
30021;BME280;16861;52.294;7.760;2023-01-31T09:48:44;100028.88;;;6.89;74.79
30021;BME280;16861;52.294;7.760;2023-01-31T09:51:13;100040.16;;;6.89;74.99
30021;BME280;16861;52.294;7.760;2023-01-31T09:53:41;100033.19;;;6.90;74.70
30021;BME280;16861;52.294;7.760;2023-01-31T09:58:55;100028.91;;;6.87;73.45
30021;BME280;16861;52.294;7.760;2023-01-31T10:04:38;100039.28;;;6.90;73.27
30021;BME280;16861;52.294;7.760;2023-01-31T10:07:27;100034.81;;;6.93;74.41
30021;BME280;16861;52.294;7.760;2023-01-31T10:10:10;100028.81;;;6.90;73.65
30021;BME280;16861;52.294;7.760;2023-01-31T10:12:45;100027.06;;;6.89;74.26
30021;BME280;16861;52.294;7.760;2023-01-31T10:15:35;100036.75;;;6.87;73.38
30021;BME280;16861;52.294;7.760;2023-01-31T10:23:58;100022.09;;;6.83;73.61
30021;BME280;16861;52.294;7.760;2023-01-31T10:26:30;100013.38;;;6.83;74.47
30021;BME280;16861;52.294;7.760;2023-01-31T10:29:15;99992.63;;;6.78;74.39
30021;BME280;16861;52.294;7.760;2023-01-31T10:31:50;99999.81;;;6.73;74.58
30021;BME280;16861;52.294;7.760;2023-01-31T10:34:31;100001.59;;;6.71;74.57
30021;BME280;16861;52.294;7.760;2023-01-31T10:39:50;99988.59;;;6.69;75.14
30021;BME280;16861;52.294;7.760;2023-01-31T10:42:28;99989.56;;;6.67;74.98
30021;BME280;16861;52.294;7.760;2023-01-31T10:47:35;99971.28;;;6.65;75.34
30021;BME280;16861;52.294;7.760;2023-01-31T10:50:15;99976.59;;;6.63;74.88
30021;BME280;16861;52.294;7.760;2023-01-31T10:56:03;99976.72;;;6.60;74.94
30021;BME280;16861;52.294;7.760;2023-01-31T10:58:31;99966.06;;;6.65;75.60
30021;BME280;16861;52.294;7.760;2023-01-31T11:00:58;99942.66;;;6.62;75.84
30021;BME280;16861;52.294;7.760;2023-01-31T11:03:25;99932.25;;;6.60;76.13
30021;BME280;16861;52.294;7.760;2023-01-31T11:05:55;99941.84;;;6.60;76.26
30021;BME280;16861;52.294;7.760;2023-01-31T11:08:56;99957.59;;;6.58;75.62
30021;BME280;16861;52.294;7.760;2023-01-31T11:11:24;99949.59;;;6.63;76.17
30021;BME280;16861;52.294;7.760;2023-01-31T11:14:03;99939.19;;;6.61;76.09
30021;BME280;16861;52.294;7.760;2023-01-31T11:16:36;99955.59;;;6.65;76.46
30021;BME280;16861;52.294;7.760;2023-01-31T11:21:41;99936.22;;;6.71;76.79
30021;BME280;16861;52.294;7.760;2023-01-31T11:24:16;99948.38;;;6.72;76.46
30021;BME280;16861;52.294;7.760;2023-01-31T11:26:52;99938.78;;;6.72;75.48
30021;BME280;16861;52.294;7.760;2023-01-31T11:29:27;99947.34;;;6.76;75.79
30021;BME280;16861;52.294;7.760;2023-01-31T11:31:56;99932.41;;;6.80;75.95
30021;BME280;16861;52.294;7.760;2023-01-31T11:34:26;99943.69;;;6.80;76.30
30021;BME280;16861;52.294;7.760;2023-01-31T11:37:16;99930.63;;;6.80;75.25
30021;BME280;16861;52.294;7.760;2023-01-31T11:39:54;99926.19;;;6.82;75.42
30021;BME280;16861;52.294;7.760;2023-01-31T11:42:21;99925.94;;;6.88;76.36
30021;BME280;16861;52.294;7.760;2023-01-31T11:44:59;99923.38;;;6.87;75.82
30021;BME280;16861;52.294;7.760;2023-01-31T11:47:42;99914.56;;;6.89;75.16
30021;BME280;16861;52.294;7.760;2023-01-31T11:52:45;99914.28;;;6.97;76.47
30021;BME280;16861;52.294;7.760;2023-01-31T11:55:16;99903.81;;;6.97;75.82
30021;BME280;16861;52.294;7.760;2023-01-31T11:57:43;99892.31;;;7.01;76.63
30021;BME280;16861;52.294;7.760;2023-01-31T12:00:22;99894.97;;;7.00;75.38
30021;BME280;16861;52.294;7.760;2023-01-31T12:05:36;99885.28;;;7.02;75.68
30021;BME280;16861;52.294;7.760;2023-01-31T12:08:03;99893.84;;;7.07;76.14
30021;BME280;16861;52.294;7.760;2023-01-31T12:10:43;99886.09;;;7.04;76.35
30021;BME280;16861;52.294;7.760;2023-01-31T12:13:16;99900.88;;;7.05;76.29
30021;BME280;16861;52.294;7.760;2023-01-31T12:16:00;99880.06;;;7.02;76.01
30021;BME280;16861;52.294;7.760;2023-01-31T12:21:12;99893.84;;;7.07;76.16
30021;BME280;16861;52.294;7.760;2023-01-31T12:24:06;99880.91;;;7.02;76.67
30021;BME280;16861;52.294;7.760;2023-01-31T12:50:52;99886.63;;;7.12;78.29
30021;BME280;16861;52.294;7.760;2023-01-31T13:01:11;99889.81;;;7.21;78.55
30021;BME280;16861;52.294;7.760;2023-01-31T13:06:50;99897.44;;;7.25;78.65
30021;BME280;16861;52.294;7.760;2023-01-31T13:09:22;99879.88;;;7.29;78.84
30021;BME280;16861;52.294;7.760;2023-01-31T13:11:54;99888.50;;;7.31;78.86
30021;BME280;16861;52.294;7.760;2023-01-31T13:14:25;99884.13;;;7.32;78.43
30021;BME280;16861;52.294;7.760;2023-01-31T13:16:56;99876.97;;;7.35;78.51
30021;BME280;16861;52.294;7.760;2023-01-31T13:19:31;99876.97;;;7.35;78.63
30021;BME280;16861;52.294;7.760;2023-01-31T13:22:02;99869.13;;;7.35;78.68
30021;BME280;16861;52.294;7.760;2023-01-31T13:24:36;99851.56;;;7.37;79.11
30021;BME280;16861;52.294;7.760;2023-01-31T13:27:10;99866.38;;;7.38;78.89
30021;BME280;16861;52.294;7.760;2023-01-31T13:29:44;99862.72;;;7.42;78.93
30021;BME280;16861;52.294;7.760;2023-01-31T13:35:09;99856.56;;;7.43;79.14
30021;BME280;16861;52.294;7.760;2023-01-31T13:37:42;99828.69;;;7.42;79.02
30021;BME280;16861;52.294;7.760;2023-01-31T13:40:24;99849.34;;;7.49;79.10
30021;BME280;16861;52.294;7.760;2023-01-31T13:42:51;99848.31;;;7.53;79.22
30021;BME280;16861;52.294;7.760;2023-01-31T13:45:30;99841.31;;;7.53;79.17
30021;BME280;16861;52.294;7.760;2023-01-31T13:48:03;99848.94;;;7.58;79.25
30021;BME280;16861;52.294;7.760;2023-01-31T13:53:36;99848.59;;;7.66;79.18
30021;BME280;16861;52.294;7.760;2023-01-31T13:56:09;99848.47;;;7.69;79.47
30021;BME280;16861;52.294;7.760;2023-01-31T13:58:38;99840.44;;;7.74;79.19
30021;BME280;16861;52.294;7.760;2023-01-31T14:01:08;99837.75;;;7.75;79.65
30021;BME280;16861;52.294;7.760;2023-01-31T14:07:14;99836.69;;;7.79;79.22
30021;BME280;16861;52.294;7.760;2023-01-31T14:15:06;99837.13;;;7.89;79.28
30021;BME280;16861;52.294;7.760;2023-01-31T14:20:25;99831.94;;;7.88;79.16
30021;BME280;16861;52.294;7.760;2023-01-31T14:25:49;99852.47;;;7.99;79.81
30021;BME280;16861;52.294;7.760;2023-01-31T14:28:16;99868.97;;;8.01;79.82
30021;BME280;16861;52.294;7.760;2023-01-31T14:30:43;99859.19;;;8.04;79.63
30021;BME280;16861;52.294;7.760;2023-01-31T14:36:15;99861.72;;;8.06;79.55
30021;BME280;16861;52.294;7.760;2023-01-31T14:39:18;99844.94;;;8.10;79.10
30021;BME280;16861;52.294;7.760;2023-01-31T14:47:47;99861.97;;;8.20;79.17
30021;BME280;16861;52.294;7.760;2023-01-31T14:53:13;99851.13;;;8.28;79.33
30021;BME280;16861;52.294;7.760;2023-01-31T14:58:32;99854.25;;;8.37;79.42
30021;BME280;16861;52.294;7.760;2023-01-31T15:01:13;99869.06;;;8.38;79.33
30021;BME280;16861;52.294;7.760;2023-01-31T15:03:55;99857.50;;;8.42;79.23
30021;BME280;16861;52.294;7.760;2023-01-31T15:11:51;99864.03;;;8.52;79.50
30021;BME280;16861;52.294;7.760;2023-01-31T15:17:31;99847.88;;;8.62;78.86
30021;BME280;16861;52.294;7.760;2023-01-31T15:23:28;99855.03;;;8.58;77.95
30021;BME280;16861;52.294;7.760;2023-01-31T15:26:06;99851.34;;;8.62;78.61
30021;BME280;16861;52.294;7.760;2023-01-31T15:28:59;99858.22;;;8.65;78.28
30021;BME280;16861;52.294;7.760;2023-01-31T15:31:31;99849.28;;;8.69;78.85
30021;BME280;16861;52.294;7.760;2023-01-31T15:34:04;99857.09;;;8.70;78.58
30021;BME280;16861;52.294;7.760;2023-01-31T15:37:00;99871.91;;;8.71;78.46
30021;BME280;16861;52.294;7.760;2023-01-31T15:39:41;99878.78;;;8.74;78.27
30021;BME280;16861;52.294;7.760;2023-01-31T15:42:28;99874.25;;;8.78;78.70